Time;durP1;ratioP1;P1;durP2;ratioP2;P2;SDS_P1;SDS_P2;PMS_P1;PMS_P2;Temp;Humidity;BMP_temperature;BMP_pressure;BME280_temperature;BME280_humidity;BME280_pressure;Samples;Min_cycle;Max_cycle;Signal;HPM_P1;HPM_P2
2021/01/17 00:04:32;;;;;;;18.87;10.67;;;;;;;-8.02;100.00;94522.84;10575639;28;20030;-73
2021/01/17 00:09:32;;;;;;;15.88;10.02;;;;;;;-8.30;100.00;94524.94;10575575;28;20303;-73
2021/01/17 00:14:32;;;;;;;25.27;14.33;;;;;;;-8.28;100.00;94531.63;10575143;28;20112;-73
2021/01/17 00:19:33;;;;;;;15.23;11.53;;;;;;;-8.25;100.00;94520.91;10574955;28;20665;-73
2021/01/17 00:24:33;;;;;;;21.67;10.73;;;;;;;-8.35;100.00;94522.81;10575103;28;20656;-73
2021/01/17 00:29:33;;;;;;;11.43;8.07;;;;;;;-8.41;100.00;94521.69;10574827;28;20284;-74
2021/01/17 00:34:34;;;;;;;18.70;8.68;;;;;;;-8.24;100.00;94526.91;10573552;28;20276;-73
2021/01/17 00:39:36;;;;;;;28.37;11.97;;;;;;;-8.38;100.00;94530.16;10574808;28;20023;-75
2021/01/17 00:44:36;;;;;;;16.85;10.07;;;;;;;-8.22;100.00;94539.78;10573896;28;20281;-75
2021/01/17 00:49:37;;;;;;;19.42;10.70;;;;;;;-8.28;100.00;94534.22;10573992;28;20019;-75
2021/01/17 00:54:37;;;;;;;19.13;14.25;;;;;;;-8.41;100.00;94526.91;10573927;28;20035;-75
2021/01/17 00:59:38;;;;;;;30.17;14.93;;;;;;;-8.30;100.00;94520.56;10555782;28;20047;-75
2021/01/17 01:04:38;;;;;;;22.30;14.32;;;;;;;-8.36;100.00;94520.38;10574021;28;20285;-75
2021/01/17 01:09:38;;;;;;;20.70;11.17;;;;;;;-8.52;100.00;94527.25;10573635;28;20023;-75
2021/01/17 01:14:39;;;;;;;13.73;10.97;;;;;;;-8.72;100.00;94523.28;10573955;28;20261;-76
2021/01/17 01:19:39;;;;;;;18.58;12.15;;;;;;;-8.83;100.00;94520.03;10555365;28;20300;-75
2021/01/17 01:24:40;;;;;;;19.60;12.53;;;;;;;-8.90;100.00;94518.19;10572843;28;20042;-76
2021/01/17 01:29:40;;;;;;;15.73;10.03;;;;;;;-8.92;100.00;94518.38;10570364;28;20287;-75
2021/01/17 01:34:40;;;;;;;19.70;13.10;;;;;;;-9.12;100.00;94516.03;10569354;28;20795;-75
2021/01/17 01:39:41;;;;;;;13.35;10.32;;;;;;;-9.20;100.00;94518.59;10570736;28;20055;-76
2021/01/17 01:44:41;;;;;;;13.63;11.02;;;;;;;-9.18;100.00;94516.66;10552437;28;20030;-75
2021/01/17 01:49:42;;;;;;;19.83;13.83;;;;;;;-9.20;100.00;94523.00;10571921;28;20024;-75
2021/01/17 01:54:43;;;;;;;16.00;11.68;;;;;;;-9.17;100.00;94513.06;10571211;28;20280;-76
2021/01/17 01:59:43;;;;;;;19.80;11.80;;;;;;;-9.08;100.00;94508.72;10553562;28;20030;-75
2021/01/17 02:04:43;;;;;;;19.52;8.50;;;;;;;-9.00;100.00;94505.31;10552903;28;20034;-75
2021/01/17 02:09:44;;;;;;;12.63;8.23;;;;;;;-8.90;100.00;94506.00;10552895;28;20058;-75
2021/01/17 02:14:48;;;;;;;16.33;9.63;;;;;;;-8.74;100.00;94507.03;10570500;28;20261;-75
2021/01/17 02:20:01;;;;;;;14.48;7.45;;;;;;;-8.69;100.00;94507.34;10571102;28;20073;-75
2021/01/17 02:25:09;;;;;;;17.27;8.40;;;;;;;-8.59;100.00;94515.84;10570639;28;20032;-75
2021/01/17 02:30:14;;;;;;;19.27;12.43;;;;;;;-8.52;100.00;94511.59;10570801;28;20034;-75
2021/01/17 02:35:15;;;;;;;18.98;9.10;;;;;;;-8.54;100.00;94505.72;10569625;28;20101;-76
2021/01/17 02:40:32;;;;;;;26.08;12.00;;;;;;;-8.58;100.00;94514.88;10567260;28;20027;-76
2021/01/17 02:45:34;;;;;;;16.03;9.77;;;;;;;-8.51;100.00;94515.84;10569344;28;20028;-77
2021/01/17 02:50:34;;;;;;;18.33;10.80;;;;;;;-8.54;100.00;94512.75;10569750;28;20356;-76
2021/01/17 02:55:37;;;;;;;16.58;9.60;;;;;;;-8.78;100.00;94517.75;10571310;28;20504;-76
2021/01/17 03:00:40;;;;;;;21.27;12.15;;;;;;;-8.95;100.00;94506.47;10571199;28;20028;-76
2021/01/17 03:05:41;;;;;;;26.88;13.57;;;;;;;-9.05;100.00;94507.59;10570750;28;20032;-76
2021/01/17 03:10:42;;;;;;;19.05;14.02;;;;;;;-9.06;100.00;94498.16;10576969;28;20394;-76
2021/01/17 03:15:42;;;;;;;17.47;11.23;;;;;;;-9.22;100.00;94493.69;10578629;28;20023;-75
2021/01/17 03:20:43;;;;;;;23.45;15.40;;;;;;;-9.42;100.00;94493.13;10578741;28;20376;-75
2021/01/17 03:25:43;;;;;;;15.27;10.87;;;;;;;-9.35;100.00;94501.94;10577709;28;20031;-76
2021/01/17 03:30:44;;;;;;;23.67;12.18;;;;;;;-9.20;100.00;94502.97;10577814;28;20820;-75
2021/01/17 03:35:45;;;;;;;16.40;10.60;;;;;;;-9.20;100.00;94502.97;10575679;28;20467;-75
2021/01/17 03:40:46;;;;;;;16.27;12.33;;;;;;;-9.09;100.00;94496.69;10574346;28;20039;-75
2021/01/17 03:45:46;;;;;;;21.80;13.10;;;;;;;-9.05;100.00;94499.78;10575290;28;20288;-75
2021/01/17 03:50:46;;;;;;;13.80;11.77;;;;;;;-8.98;100.00;94495.56;10576769;28;20273;-76
2021/01/17 03:55:47;;;;;;;20.13;10.43;;;;;;;-8.78;100.00;94499.50;10575943;28;20360;-75
2021/01/17 04:00:47;;;;;;;22.33;9.82;;;;;;;-8.53;100.00;94509.97;10576052;28;20075;-76
2021/01/17 04:05:47;;;;;;;18.83;10.67;;;;;;;-8.33;100.00;94505.25;10557238;28;20035;-76
2021/01/17 04:10:48;;;;;;;14.15;8.07;;;;;;;-8.18;100.00;94502.78;10575458;28;20384;-75
2021/01/17 04:15:48;;;;;;;17.83;9.15;;;;;;;-8.22;100.00;94504.09;10574941;28;20023;-76
2021/01/17 04:20:49;;;;;;;14.93;8.27;;;;;;;-8.15;100.00;94497.28;10574206;28;20043;-76
2021/01/17 04:25:50;;;;;;;14.23;7.68;;;;;;;-8.14;100.00;94501.47;10574411;28;20131;-75
2021/01/17 04:30:50;;;;;;;13.23;7.90;;;;;;;-8.33;100.00;94515.69;10574774;28;20060;-76
2021/01/17 04:35:51;;;;;;;12.35;7.20;;;;;;;-8.25;100.00;94512.25;10577029;28;20474;-75
2021/01/17 04:40:51;;;;;;;13.67;7.83;;;;;;;-8.16;100.00;94513.88;10574490;28;20046;-76
2021/01/17 04:45:52;;;;;;;17.63;7.97;;;;;;;-8.02;100.00;94516.78;10576644;28;20844;-76
2021/01/17 04:50:59;;;;;;;14.52;7.20;;;;;;;-7.95;100.00;94508.16;10576080;28;20051;-76
2021/01/17 04:56:11;;;;;;;11.27;6.75;;;;;;;-7.93;100.00;94513.22;10591472;27;20039;-75
2021/01/17 05:01:25;;;;;;;16.55;9.77;;;;;;;-8.24;100.00;94524.31;10575683;28;20027;-76
2021/01/17 05:06:27;;;;;;;12.45;7.68;;;;;;;-8.31;100.00;94528.53;10575754;28;20019;-76
2021/01/17 05:11:35;;;;;;;11.45;7.43;;;;;;;-8.24;100.00;94527.72;10574939;28;20027;-77
2021/01/17 05:16:44;;;;;;;11.10;6.63;;;;;;;-8.16;100.00;94526.91;10574643;28;20030;-76
2021/01/17 05:21:49;;;;;;;18.67;6.57;;;;;;;-8.02;100.00;94524.63;10564128;28;20127;-76
2021/01/17 05:26:58;;;;;;;14.13;6.35;;;;;;;-7.92;100.00;94522.66;10544447;28;20039;-76
2021/01/17 05:32:00;;;;;;;16.38;8.80;;;;;;;-8.06;100.00;94521.53;10574198;28;20505;-76
2021/01/17 05:37:03;;;;;;;19.10;8.60;;;;;;;-7.94;100.00;94520.22;10551363;28;20028;-76
2021/01/17 05:42:07;;;;;;;21.75;10.20;;;;;;;-7.94;100.00;94520.22;10569839;28;20053;-76
2021/01/17 05:47:08;;;;;;;21.13;9.57;;;;;;;-7.99;100.00;94524.31;10569189;28;20023;-76
2021/01/17 05:52:13;;;;;;;17.70;9.75;;;;;;;-8.00;100.00;94522.69;10569329;28;20030;-76
2021/01/17 05:57:23;;;;;;;19.90;11.50;;;;;;;-8.02;100.00;94522.00;10548695;28;20015;-76
2021/01/17 06:02:24;;;;;;;15.80;9.48;;;;;;;-8.11;100.00;94518.59;10554180;28;20039;-77
2021/01/17 06:07:28;;;;;;;24.88;13.05;;;;;;;-8.19;100.00;94516.81;10572108;28;20070;-76
2021/01/17 06:12:38;;;;;;;27.75;12.38;;;;;;;-8.14;100.00;94522.34;10573116;28;20019;-76
2021/01/17 06:17:45;;;;;;;20.83;11.25;;;;;;;-8.15;100.00;94527.72;10554532;28;20027;-77
2021/01/17 06:22:55;;;;;;;22.42;13.02;;;;;;;-8.11;100.00;94536.84;10574968;28;20220;-78
2021/01/17 06:28:10;;;;;;;15.85;11.27;;;;;;;-8.44;98.63;94536.81;10573009;28;20114;-75
2021/01/17 06:33:21;;;;;;;21.83;9.60;;;;;;;-8.59;96.21;94528.88;10572986;28;20027;-78
2021/01/17 06:38:21;;;;;;;22.50;11.60;;;;;;;-8.58;100.00;94535.72;10572741;28;20024;-75
2021/01/17 06:43:24;;;;;;;28.10;11.32;;;;;;;-8.60;100.00;94538.44;10574797;28;20096;-75
2021/01/17 06:48:26;;;;;;;25.92;13.27;;;;;;;-8.63;100.00;94545.78;10578502;28;20035;-75
2021/01/17 06:53:27;;;;;;;24.95;13.20;;;;;;;-9.03;100.00;94553.31;10561815;28;20120;-75
2021/01/17 06:58:27;;;;;;;22.08;13.48;;;;;;;-9.12;100.00;94565.47;10563334;27;20027;-75
2021/01/17 07:03:51;;;;;;;25.52;14.20;;;;;;;-9.06;100.00;94566.66;10573983;28;20019;-75
2021/01/17 07:08:59;;;;;;;36.08;19.00;;;;;;;-8.51;100.00;94554.94;10556190;28;20030;-75
2021/01/17 07:14:06;;;;;;;50.88;21.20;;;;;;;-8.14;100.00;94556.22;10572030;28;20028;-73
2021/01/17 07:19:07;;;;;;;37.05;18.45;;;;;;;-8.00;100.00;94552.16;10570812;28;20049;-74
2021/01/17 07:24:09;;;;;;;35.33;19.23;;;;;;;-7.77;100.00;94549.72;10564679;28;20032;-74
2021/01/17 07:29:14;;;;;;;43.38;19.52;;;;;;;-7.53;100.00;94555.88;10574924;28;20063;-74
2021/01/17 07:34:15;;;;;;;33.03;16.83;;;;;;;-7.27;100.00;94539.16;10573141;28;20126;-74
2021/01/17 07:39:17;;;;;;;32.78;15.80;;;;;;;-7.02;100.00;94542.50;10572212;28;20563;-74
2021/01/17 07:44:20;;;;;;;37.03;17.55;;;;;;;-6.94;100.00;94542.47;10532433;28;20036;-76
2021/01/17 07:49:21;;;;;;;28.75;12.73;;;;;;;-6.66;100.00;94541.22;10532195;28;20044;-74
2021/01/17 07:54:26;;;;;;;28.45;13.50;;;;;;;-6.15;100.00;94536.31;10572152;28;20050;-74
2021/01/17 07:59:27;;;;;;;17.98;7.20;;;;;;;-5.47;86.67;94541.59;10572357;28;20038;-73
2021/01/17 08:04:29;;;;;;;16.50;9.32;;;;;;;-5.37;85.52;94544.78;10573859;28;20494;-74
2021/01/17 08:09:44;;;;;;;19.23;8.18;;;;;;;-5.14;82.88;94543.88;10572714;28;20038;-74
2021/01/17 08:14:44;;;;;;;17.27;8.40;;;;;;;-4.94;81.23;94548.56;10589360;27;20475;-74
2021/01/17 08:19:53;;;;;;;20.13;8.10;;;;;;;-4.64;78.21;94539.66;10572220;28;20054;-74
2021/01/17 08:24:56;;;;;;;9.43;5.60;;;;;;;-4.29;67.55;94545.09;10573058;28;21115;-74
2021/01/17 08:35:18;;;;;;;12.95;7.57;;;;;;;-4.23;66.96;94545.38;10572238;28;20024;-75
2021/01/17 08:40:38;;;;;;;13.15;6.10;;;;;;;-3.68;65.25;94538.63;10529055;28;20093;-76
2021/01/17 08:45:39;;;;;;;15.50;5.88;;;;;;;-2.99;58.71;94536.25;10530599;28;20463;-75
2021/01/17 08:50:40;;;;;;;8.70;5.43;;;;;;;-2.21;53.06;94538.59;10544829;28;20050;-75
2021/01/17 08:55:49;;;;;;;14.48;5.72;;;;;;;-2.11;52.22;94536.41;10537484;28;20028;-74
2021/01/17 09:00:52;;;;;;;8.93;4.50;;;;;;;-2.01;51.59;94537.81;10531148;28;20023;-74
2021/01/17 09:05:53;;;;;;;13.10;8.43;;;;;;;-1.92;50.54;94540.06;10529913;28;20089;-74
2021/01/17 09:10:55;;;;;;;9.20;4.72;;;;;;;-1.30;48.89;94541.72;10530374;28;20028;-74
2021/01/17 09:16:03;;;;;;;12.25;5.40;;;;;;;-0.92;48.00;94552.44;10530564;28;20647;-75
2021/01/17 09:21:07;;;;;;;12.10;5.10;;;;;;;-0.38;47.18;94536.44;10531098;28;20109;-74
2021/01/17 09:26:07;;;;;;;15.30;5.55;;;;;;;-0.23;45.50;94531.69;10529847;28;20074;-74
2021/01/17 09:31:08;;;;;;;11.40;5.75;;;;;;;-1.14;45.95;94517.56;10529784;28;20110;-74
2021/01/17 09:36:11;;;;;;;11.80;5.47;;;;;;;-2.13;49.41;94529.72;10529328;28;20020;-76
2021/01/17 09:41:11;;;;;;;11.27;6.63;;;;;;;-3.11;52.22;94523.66;10529041;28;20036;-76
2021/01/17 09:46:12;;;;;;;12.17;6.03;;;;;;;-3.32;53.83;94516.66;10528772;28;20050;-75
2021/01/17 09:51:13;;;;;;;14.68;6.47;;;;;;;-3.22;53.25;94512.84;10528247;28;20261;-75
2021/01/17 09:56:14;;;;;;;17.42;6.00;;;;;;;-1.67;51.47;94499.97;10571092;28;20031;-75
2021/01/17 10:01:21;;;;;;;14.25;6.78;;;;;;;-0.70;46.53;94481.75;10558972;28;20114;-74
2021/01/17 10:06:22;;;;;;;16.80;6.85;;;;;;;-0.21;45.49;94479.47;10569889;28;20085;-74
2021/01/17 10:11:23;;;;;;;13.18;5.65;;;;;;;3.06;38.94;94458.00;10541856;28;20024;-75
2021/01/17 10:16:24;;;;;;;15.30;6.03;;;;;;;2.60;38.77;94449.03;10569013;28;20024;-75
2021/01/17 10:21:25;;;;;;;17.58;7.25;;;;;;;4.86;36.14;94436.47;10577493;28;20403;-75
2021/01/17 10:26:26;;;;;;;13.10;5.43;;;;;;;7.33;31.46;94425.50;10577684;28;20024;-76
2021/01/17 10:31:33;;;;;;;16.92;6.43;;;;;;;9.34;28.72;94419.59;10594269;27;20405;-75
2021/01/17 10:36:33;;;;;;;10.38;5.70;;;;;;;10.40;27.20;94405.91;10577935;28;20024;-76
2021/01/17 10:41:35;;;;;;;13.98;6.45;;;;;;;10.57;26.09;94407.41;10577444;28;20054;-76
2021/01/17 10:46:41;;;;;;;12.52;6.25;;;;;;;9.49;26.66;94410.66;10577034;28;20032;-76
2021/01/17 10:51:52;;;;;;;13.27;6.38;;;;;;;10.24;26.78;94407.06;10577136;28;20035;-75
2021/01/17 10:56:54;;;;;;;12.35;6.22;;;;;;;9.53;26.22;94407.19;10577276;28;20502;-75
2021/01/17 11:01:54;;;;;;;16.85;7.72;;;;;;;3.98;33.25;94425.47;10537639;28;20031;-75
2021/01/17 11:06:58;;;;;;;12.88;7.05;;;;;;;3.19;33.88;94425.06;10534008;28;20032;-75
2021/01/17 11:11:59;;;;;;;13.48;6.40;;;;;;;1.54;37.05;94425.75;10534364;28;20028;-75
2021/01/17 11:17:01;;;;;;;13.52;7.25;;;;;;;0.62;39.56;94429.25;10534366;28;20483;-76
2021/01/17 11:22:02;;;;;;;14.35;6.80;;;;;;;1.78;36.86;94416.03;10516048;28;20036;-75
2021/01/17 11:27:11;;;;;;;16.67;6.68;;;;;;;0.42;38.71;94427.59;10533503;28;20050;-76
2021/01/17 11:32:12;;;;;;;14.48;8.18;;;;;;;1.04;39.10;94421.47;10532416;28;20031;-75
2021/01/17 11:37:12;;;;;;;20.67;8.73;;;;;;;0.92;39.24;94423.22;10533483;28;20020;-75
2021/01/17 11:42:19;;;;;;;15.30;5.85;;;;;;;1.18;37.40;94416.81;10532999;28;20049;-75
2021/01/17 11:47:19;;;;;;;12.13;7.07;;;;;;;2.82;36.19;94396.19;10531891;28;20031;-75
2021/01/17 11:52:20;;;;;;;10.57;5.15;;;;;;;3.21;35.29;94399.13;10545826;28;20497;-75
2021/01/17 11:57:26;;;;;;;12.98;5.82;;;;;;;4.88;32.57;94386.44;10531658;28;20139;-75
2021/01/17 12:02:27;;;;;;;9.13;5.13;;;;;;;1.99;36.74;94392.69;10531021;28;20106;-75
2021/01/17 12:07:27;;;;;;;15.82;7.82;;;;;;;2.39;36.34;94389.41;10513737;28;20020;-75
2021/01/17 12:12:34;;;;;;;11.95;5.45;;;;;;;0.39;38.43;94388.38;10532412;28;20537;-75
2021/01/17 12:17:35;;;;;;;16.00;8.02;;;;;;;-1.57;43.27;94402.88;10513298;28;20028;-74
2021/01/17 12:22:36;;;;;;;16.90;7.75;;;;;;;-2.00;45.63;94398.06;10530402;28;20745;-75
2021/01/17 12:27:36;;;;;;;23.73;8.93;;;;;;;-2.13;47.46;94398.06;10530012;28;20109;-75
2021/01/17 12:32:36;;;;;;;18.10;9.83;;;;;;;-2.14;47.61;94399.09;10530817;28;20019;-74
2021/01/17 12:37:37;;;;;;;15.63;7.53;;;;;;;-2.11;47.95;94396.03;10530010;28;20343;-74
2021/01/17 12:42:37;;;;;;;19.00;8.27;;;;;;;-1.78;48.78;94401.28;10528747;28;20282;-74
2021/01/17 12:47:38;;;;;;;17.63;7.07;;;;;;;-1.85;46.56;94400.50;10531679;28;20437;-75
2021/01/17 12:52:38;;;;;;;21.77;9.18;;;;;;;-2.40;48.82;94403.28;10559801;28;20897;-75
2021/01/17 12:57:39;;;;;;;15.53;8.23;;;;;;;-2.58;50.91;94406.53;10569940;28;20015;-75
2021/01/17 13:02:40;;;;;;;13.40;8.43;;;;;;;-2.48;51.46;94416.69;10571345;28;20115;-75
2021/01/17 13:07:40;;;;;;;19.25;8.23;;;;;;;-2.45;53.22;94422.34;10570206;28;20024;-75
2021/01/17 13:12:40;;;;;;;26.30;8.50;;;;;;;-2.54;52.34;94412.19;10570845;28;20024;-74
2021/01/17 13:17:41;;;;;;;14.93;7.60;;;;;;;-2.54;53.04;94410.41;10542907;28;20662;-74
2021/01/17 13:22:41;;;;;;;21.97;9.80;;;;;;;-2.69;53.27;94420.25;10460567;28;20833;-75
2021/01/17 13:27:42;;;;;;;16.97;8.47;;;;;;;-2.71;54.30;94420.44;10445299;28;20523;-75
2021/01/17 13:32:42;;;;;;;20.33;9.70;;;;;;;-2.83;56.34;94419.41;10446241;28;20275;-74
2021/01/17 13:37:43;;;;;;;18.00;8.70;;;;;;;-2.54;57.83;94412.19;10445645;28;20298;-75
2021/01/17 13:42:43;;;;;;;19.23;7.53;;;;;;;-2.42;56.89;94408.75;10444099;28;20021;-75
2021/01/17 13:47:45;;;;;;;18.85;8.98;;;;;;;-2.59;57.35;94410.16;10443103;28;20488;-75
2021/01/17 13:52:45;;;;;;;28.70;9.95;;;;;;;-2.84;58.48;94423.06;10473614;28;20495;-75
2021/01/17 13:57:46;;;;;;;28.00;10.73;;;;;;;-2.90;61.10;94419.41;10486627;28;20166;-76
2021/01/17 14:02:48;;;;;;;23.67;11.32;;;;;;;-3.26;65.62;94425.72;10486630;28;20035;-75
2021/01/17 14:07:56;;;;;;;18.05;9.45;;;;;;;-3.27;65.91;94435.41;10486062;28;20024;-75
2021/01/17 14:12:57;;;;;;;15.93;7.78;;;;;;;-3.40;67.75;94431.88;10484858;28;20033;-75
2021/01/17 14:17:57;;;;;;;18.13;8.13;;;;;;;-3.46;62.76;94429.06;10486342;28;20464;-75
2021/01/17 14:22:59;;;;;;;21.70;9.15;;;;;;;-3.50;61.81;94434.88;10558556;28;20063;-75
2021/01/17 14:28:00;;;;;;;19.10;9.43;;;;;;;-3.66;60.15;94449.94;10569577;28;20496;-75
2021/01/17 14:33:00;;;;;;;17.52;8.73;;;;;;;-3.83;64.35;94444.16;10544038;28;20031;-75
2021/01/17 14:38:00;;;;;;;27.53;11.13;;;;;;;-3.95;64.76;94448.31;10528396;28;20787;-75
2021/01/17 14:43:02;;;;;;;22.73;10.87;;;;;;;-3.90;67.77;94455.63;10494854;28;20271;-76
2021/01/17 14:48:03;;;;;;;21.42;8.25;;;;;;;-4.01;68.11;94455.13;10526981;28;20407;-76
2021/01/17 14:53:04;;;;;;;15.88;8.82;;;;;;;-4.20;68.60;94453.97;10525945;28;20106;-76
2021/01/17 14:58:05;;;;;;;20.40;8.43;;;;;;;-4.10;69.04;94465.94;10513360;28;20021;-74
2021/01/17 15:03:05;;;;;;;16.63;9.43;;;;;;;-4.14;71.72;94463.72;10519157;28;20023;-75
2021/01/17 15:08:06;;;;;;;17.03;9.67;;;;;;;-4.18;72.13;94472.16;10516697;28;20024;-75
2021/01/17 15:13:07;;;;;;;16.38;8.68;;;;;;;-4.21;76.73;94480.41;10533904;28;20270;-75
2021/01/17 15:18:07;;;;;;;15.50;9.10;;;;;;;-4.20;79.30;94476.75;10534599;28;20139;-75
2021/01/17 15:23:08;;;;;;;20.90;10.70;;;;;;;-4.26;79.70;94488.81;10534713;28;20468;-75
2021/01/17 15:28:08;;;;;;;22.10;10.07;;;;;;;-4.43;80.94;94487.47;10533746;28;20111;-75
2021/01/17 15:33:08;;;;;;;18.07;10.00;;;;;;;-4.46;82.64;94502.56;10532673;28;20380;-75
2021/01/17 15:38:09;;;;;;;22.73;11.23;;;;;;;-4.48;81.09;94498.50;10533597;28;20277;-74
2021/01/17 15:43:09;;;;;;;27.65;9.55;;;;;;;-4.56;86.20;94501.22;10532376;28;20452;-74
2021/01/17 15:48:10;;;;;;;23.27;9.40;;;;;;;-4.56;90.56;94502.06;10532381;28;20542;-75
2021/01/17 15:53:10;;;;;;;23.17;10.90;;;;;;;-4.59;89.31;94509.47;10533238;28;20445;-75
2021/01/17 15:58:11;;;;;;;24.93;11.10;;;;;;;-4.63;90.19;94515.09;10532180;28;20833;-74
2021/01/17 16:03:11;;;;;;;18.25;10.38;;;;;;;-4.63;88.27;94509.84;10532026;28;20648;-74
2021/01/17 16:08:11;;;;;;;23.90;11.33;;;;;;;-4.98;93.66;94512.25;10507210;28;20107;-75
2021/01/17 16:13:12;;;;;;;40.17;15.38;;;;;;;-5.03;98.08;94514.59;10491317;28;20266;-76
2021/01/17 16:18:13;;;;;;;41.13;14.87;;;;;;;-4.89;95.54;94522.63;10489726;28;20028;-75
2021/01/17 16:23:13;;;;;;;61.33;17.45;;;;;;;-4.98;98.96;94525.34;10489739;28;20121;-75
2021/01/17 16:28:14;;;;;;;23.48;10.90;;;;;;;-4.97;100.00;94523.53;10488603;28;20557;-75
2021/01/17 16:33:14;;;;;;;22.33;10.77;;;;;;;-5.07;100.00;94534.28;10487761;28;20016;-75
2021/01/17 16:38:14;;;;;;;28.23;11.40;;;;;;;-5.11;100.00;94529.59;10488811;28;20029;-76
2021/01/17 16:43:15;;;;;;;24.90;11.13;;;;;;;-5.17;100.00;94537.19;10487890;28;20266;-76
2021/01/17 16:48:15;;;;;;;25.13;12.60;;;;;;;-5.22;100.00;94547.41;10488351;28;20028;-75
2021/01/17 16:53:16;;;;;;;22.43;10.67;;;;;;;-5.21;100.00;94558.69;10522810;28;20274;-76
2021/01/17 16:58:16;;;;;;;25.07;12.93;;;;;;;-5.17;100.00;94557.34;10529919;28;20939;-76
2021/01/17 17:03:16;;;;;;;23.80;11.97;;;;;;;-5.09;100.00;94570.34;10529048;28;20774;-76
2021/01/17 17:08:17;;;;;;;25.37;12.17;;;;;;;-5.14;100.00;94567.47;10529740;28;20482;-76
2021/01/17 17:13:17;;;;;;;24.43;11.77;;;;;;;-5.08;100.00;94577.22;10529668;28;20351;-76
2021/01/17 17:18:17;;;;;;;23.30;11.60;;;;;;;-5.25;100.00;94576.56;10526888;28;20804;-76
2021/01/17 17:23:18;;;;;;;33.53;15.88;;;;;;;-5.11;100.00;94590.66;10514414;28;20856;-76
2021/01/17 17:28:18;;;;;;;42.40;16.07;;;;;;;-5.22;100.00;94593.75;10484301;28;20098;-76
2021/01/17 17:33:18;;;;;;;28.43;13.17;;;;;;;-4.94;100.00;94606.22;10485362;28;20368;-76
2021/01/17 17:38:19;;;;;;;28.95;14.15;;;;;;;-5.08;100.00;94603.44;10484971;28;20363;-77
2021/01/17 17:43:19;;;;;;;34.72;16.00;;;;;;;-5.00;100.00;94603.31;10505193;28;20047;-76
2021/01/17 17:48:20;;;;;;;36.97;13.52;;;;;;;-4.87;100.00;94617.63;10526893;28;20061;-76
2021/01/17 17:53:20;;;;;;;39.53;15.60;;;;;;;-4.87;100.00;94613.22;10526983;28;20031;-76
2021/01/17 17:58:20;;;;;;;27.48;11.40;;;;;;;-4.92;100.00;94617.38;10516269;28;20277;-76
2021/01/17 18:03:22;;;;;;;28.67;13.80;;;;;;;-4.93;100.00;94626.22;10484564;28;20029;-76
2021/01/17 18:08:22;;;;;;;30.98;13.18;;;;;;;-5.16;100.00;94629.72;10485588;28;21099;-75
2021/01/17 18:13:22;;;;;;;28.80;13.45;;;;;;;-5.13;100.00;94628.53;10511326;28;20096;-76
2021/01/17 18:18:23;;;;;;;27.60;15.03;;;;;;;-5.15;100.00;94623.47;10525624;28;20036;-75
2021/01/17 18:23:25;;;;;;;28.17;13.68;;;;;;;-5.20;100.00;94624.00;10505725;28;20367;-75
2021/01/17 18:28:25;;;;;;;26.15;14.70;;;;;;;-5.35;100.00;94634.44;10525752;28;20085;-76
2021/01/17 18:33:26;;;;;;;27.92;13.90;;;;;;;-5.36;100.00;94643.31;10507692;28;20037;-76
2021/01/17 18:38:26;;;;;;;33.00;14.87;;;;;;;-5.27;100.00;94635.38;10487164;28;20891;-77
2021/01/17 18:43:27;;;;;;;31.42;14.05;;;;;;;-5.18;100.00;94642.16;10492958;28;20067;-76
2021/01/17 18:48:27;;;;;;;41.17;18.50;;;;;;;-5.27;100.00;94654.53;10475145;28;20037;-75
2021/01/17 18:53:27;;;;;;;33.08;16.65;;;;;;;-5.29;100.00;94655.69;10529096;28;20043;-75
2021/01/17 18:58:28;;;;;;;33.80;15.20;;;;;;;-5.15;100.00;94660.16;10509664;28;20036;-75
2021/01/17 19:03:28;;;;;;;37.88;16.23;;;;;;;-5.16;100.00;94671.63;10474235;28;20336;-76
2021/01/17 19:08:28;;;;;;;40.55;17.05;;;;;;;-5.16;100.00;94676.88;10492491;28;20438;-76
2021/01/17 19:13:29;;;;;;;36.15;16.52;;;;;;;-5.12;100.00;94677.31;10514204;28;20027;-76
2021/01/17 19:18:29;;;;;;;39.10;18.70;;;;;;;-5.07;100.00;94669.75;10533133;28;20459;-76
2021/01/17 19:23:30;;;;;;;35.55;16.90;;;;;;;-5.20;100.00;94680.84;10533567;28;20529;-77
2021/01/17 19:28:30;;;;;;;35.23;17.90;;;;;;;-5.16;100.00;94679.50;10528958;28;20037;-76
2021/01/17 19:33:31;;;;;;;44.05;18.10;;;;;;;-5.22;100.00;94682.81;10489798;28;20365;-76
2021/01/17 19:38:32;;;;;;;38.13;18.83;;;;;;;-5.16;100.00;94676.88;10472946;28;20029;-76
2021/01/17 19:43:32;;;;;;;49.42;19.55;;;;;;;-5.27;100.00;94690.41;10491774;28;20354;-76
2021/01/17 19:48:33;;;;;;;42.50;17.63;;;;;;;-5.29;100.00;94694.97;10525386;28;20036;-76
2021/01/17 19:53:33;;;;;;;41.03;17.33;;;;;;;-5.40;100.00;94696.19;10499155;28;20278;-77
2021/01/17 19:58:34;;;;;;;43.03;19.58;;;;;;;-5.30;100.00;94695.97;10489683;28;20350;-77
2021/01/17 20:03:34;;;;;;;35.85;16.48;;;;;;;-5.39;100.00;94700.47;10488549;28;20025;-76
2021/01/17 20:08:34;;;;;;;32.37;14.23;;;;;;;-5.42;100.00;94704.25;10528620;28;20395;-75
2021/01/17 20:13:35;;;;;;;28.97;14.77;;;;;;;-5.49;100.00;94709.34;10531508;28;20352;-76
2021/01/17 20:18:35;;;;;;;36.07;18.50;;;;;;;-5.54;100.00;94713.50;10529222;28;20285;-76
2021/01/17 20:23:35;;;;;;;31.67;15.27;;;;;;;-5.48;100.00;94715.44;10529960;28;20339;-75
2021/01/17 20:28:36;;;;;;;32.03;16.67;;;;;;;-5.41;100.00;94716.34;10530694;28;20280;-74
2021/01/17 20:33:36;;;;;;;30.00;15.83;;;;;;;-5.40;100.00;94706.69;10532053;28;20282;-74
2021/01/17 20:38:36;;;;;;;35.90;15.20;;;;;;;-6.02;100.00;94718.88;10530164;28;20349;-74
2021/01/17 20:43:37;;;;;;;31.23;14.63;;;;;;;-6.39;100.00;94734.22;10529381;28;20490;-74
2021/01/17 20:48:37;;;;;;;28.50;13.73;;;;;;;-6.26;100.00;94732.88;10529301;28;20430;-74
2021/01/17 20:53:38;;;;;;;31.00;12.68;;;;;;;-6.42;100.00;94726.72;10512857;28;20028;-74
2021/01/17 20:58:39;;;;;;;23.77;14.10;;;;;;;-6.37;100.00;94723.59;10489300;28;20050;-74
2021/01/17 21:03:42;;;;;;;34.40;14.90;;;;;;;-6.29;100.00;94733.19;10469717;28;20016;-77
2021/01/17 21:08:44;;;;;;;28.73;12.98;;;;;;;-6.19;100.00;94745.09;10486779;28;20178;-77
2021/01/17 21:13:47;;;;;;;34.40;13.38;;;;;;;-6.00;100.00;94748.28;10502124;28;20016;-76
2021/01/17 21:18:48;;;;;;;28.98;16.05;;;;;;;-5.88;100.00;94746.88;10528299;28;20135;-77
2021/01/17 21:23:48;;;;;;;37.13;14.00;;;;;;;-5.85;100.00;94758.81;10528239;28;20032;-76
2021/01/17 21:28:49;;;;;;;36.10;16.33;;;;;;;-5.79;100.00;94754.69;10526054;28;20019;-77
2021/01/17 21:33:50;;;;;;;26.40;13.02;;;;;;;-5.76;100.00;94757.81;10526923;28;20028;-77
2021/01/17 21:38:53;;;;;;;31.63;15.30;;;;;;;-5.71;100.00;94747.63;10527858;28;20043;-77
2021/01/17 21:43:53;;;;;;;35.85;13.88;;;;;;;-6.19;100.00;94749.53;10527541;28;20126;-76
2021/01/17 21:48:53;;;;;;;29.83;13.27;;;;;;;-6.02;100.00;94755.50;10527007;28;20427;-76
2021/01/17 21:53:54;;;;;;;36.10;17.10;;;;;;;-5.96;100.00;94764.44;10526148;28;20795;-76
2021/01/17 21:58:54;;;;;;;35.27;17.80;;;;;;;-5.71;100.00;94765.94;10526081;28;20399;-76
2021/01/17 22:03:55;;;;;;;33.27;15.50;;;;;;;-5.64;100.00;94771.31;10526278;28;20874;-76
2021/01/17 22:08:55;;;;;;;28.92;14.55;;;;;;;-5.57;100.00;94764.38;10525783;28;20277;-77
2021/01/17 22:13:55;;;;;;;32.88;15.77;;;;;;;-5.61;100.00;94772.78;10525769;28;20031;-75
2021/01/17 22:18:56;;;;;;;35.83;14.95;;;;;;;-5.56;100.00;94773.88;10525837;28;20028;-76
2021/01/17 22:23:56;;;;;;;29.35;16.20;;;;;;;-5.62;100.00;94766.72;10511301;28;20387;-76
2021/01/17 22:28:57;;;;;;;27.50;15.83;;;;;;;-5.52;100.00;94780.41;10483871;28;20032;-76
2021/01/17 22:33:57;;;;;;;36.97;17.47;;;;;;;-5.51;100.00;94771.56;10484254;28;20297;-76
2021/01/17 22:38:57;;;;;;;37.77;18.77;;;;;;;-5.49;100.00;94777.44;10482673;28;20270;-75
2021/01/17 22:43:58;;;;;;;33.97;16.60;;;;;;;-5.49;100.00;94781.88;10482840;28;20040;-76
2021/01/17 22:48:59;;;;;;;34.67;16.00;;;;;;;-5.56;100.00;94784.34;10483272;28;20332;-75
2021/01/17 22:53:59;;;;;;;40.85;15.45;;;;;;;-5.55;100.00;94779.97;10522369;28;20285;-76
2021/01/17 22:59:00;;;;;;;25.03;12.70;;;;;;;-5.42;100.00;94784.63;10524904;28;20032;-76